Tres Hombres — 9LD2206 — position and weather

sailwx.info

Track history (hours):
 
Tides and Currents Weather Stations Pressure Air Temp Water Temp Dewpoint Dewpoint Depression Visibility Wind Speed Wind Dir Waves Ship Positions

Tres Hombres

Ship's website: http://www.zeilendehandelsvaart.nl/

Last reported at 2015-Jul-06 15:28 UTC. Time now 2015-Jul-07 13:18 UTC.
Position N 51°27' E 002°18'.

Length 32 m.

Type: Sailing vessel. MMSI: 667905000.

Date/timePositionNaut miles runAvg speedWind from/ knotsBaromVisibWave heightAir tempDewpointWater temp
2015-Jul-06 15:28N 51°27' E 002°18'5 4.8
2015-Jul-06 14:26N 51°23' E 002°14'4 4.7
2015-Jul-06 13:33N 51°20' E 002°10'4 4.0
2015-Jul-06 12:31N 51°16' E 002°06'3 2.7
2015-Jul-06 11:32N 51°14' E 002°03'2 2.3
2015-Jul-06 10:28N 51°12' E 002°01'3 3.6
2015-Jul-06 09:33N 51°12' E 001°56'4 3.7
2015-Jul-06 08:33N 51°10' E 001°50'5 4.9
2015-Jul-06 07:33N 51°09' E 001°43'6 5.5
2015-Jul-06 06:33N 51°12' E 001°35'5 5.1
2015-Jul-06 05:33N 51°08' E 001°30'5 5.0
2015-Jul-06 04:33N 51°05' E 001°24'36 6.0
2015-Jul-05 22:32N 50°44' E 000°37'7 6.1
2015-Jul-05 21:24N 50°42' E 000°26'6 6.6
2015-Jul-05 20:33N 50°41' E 000°18'6 6.0
2015-Jul-05 19:30N 50°40' E 000°08'56 4.3
2015-Jul-05 06:30N 50°31' W 001°19'7 0.9
2015-Jul-04 22:03N 50°29' W 001°30'68 5.0
2015-Jul-04 08:34N 50°26' W 003°16'6 6.5
2015-Jul-04 07:33N 50°25' W 003°27'3 3.0
2015-Jul-04 06:32N 50°24' W 003°31'0 0.0
2015-Jul-04 05:32N 50°24' W 003°31'0 0.0
2015-Jul-03 16:33N 50°24' W 003°31'0 0.0
2015-Jul-03 15:33N 50°24' W 003°31'0 0.0
2015-Jul-03 14:33N 50°24' W 003°31'0 0.0
2015-Jul-03 13:33N 50°24' W 003°31'0 0.0
2015-Jul-03 12:33N 50°24' W 003°31'0 0.0
2015-Jul-03 11:33N 50°24' W 003°31'0 0.0
2015-Jul-03 10:33N 50°24' W 003°31'0 0.0
2015-Jul-03 09:33N 50°24' W 003°31'0 0.0
2015-Jul-03 08:33N 50°24' W 003°31'0 0.0
2015-Jul-03 07:33N 50°24' W 003°31'0 0.0
2015-Jul-03 06:33N 50°24' W 003°31'0 0.0
2015-Jul-03 05:33N 50°24' W 003°31'0 0.0
2015-Jul-03 04:33N 50°24' W 003°31'0 0.0
2015-Jul-03 03:33N 50°24' W 003°31'0 0.0
2015-Jul-03 02:33N 50°24' W 003°31'0 0.0
2015-Jul-03 01:33N 50°24' W 003°31'0 0.0
2015-Jul-03 00:33N 50°24' W 003°31'0 0.0
2015-Jul-02 23:33N 50°24' W 003°31'0 0.0
2015-Jul-02 22:33N 50°24' W 003°31'0 0.0
2015-Jul-02 21:33N 50°24' W 003°31'0 0.0
2015-Jul-02 20:33N 50°24' W 003°31'0 0.0
2015-Jul-02 19:33N 50°24' W 003°31'0 0.0
2015-Jul-02 18:33N 50°24' W 003°31'0 0.0
2015-Jul-02 17:33N 50°24' W 003°31'0 0.0
2015-Jul-02 16:33N 50°24' W 003°31'0 0.0
2015-Jul-02 15:33N 50°24' W 003°31'0 0.0
2015-Jul-02 14:33N 50°24' W 003°31'1 1.4
2015-Jul-02 13:33N 50°25' W 003°30'4 4.0
2015-Jul-02 12:33N 50°25' W 003°24'2 2.3
2015-Jul-02 11:33N 50°23' W 003°23'5 4.8
2015-Jul-02 10:33N 50°19' W 003°27'2 2.3
2015-Jul-02 09:28N 50°17' W 003°29'2 2.4
2015-Jul-02 08:33N 50°15' W 003°31'35 2.4
2015-Jul-01 18:14N 49°46' W 004°01'99 2.9
2015-Jun-30 08:33N 48°14' W 004°55'6 6.3
2015-Jun-30 07:33N 48°09' W 004°50'5 4.5
2015-Jun-30 06:29N 48°05' W 004°44'11 5.7
2015-Jun-30 04:33N 48°10' W 004°29'  
Track history (hours):
 
Tides and Currents Weather Stations Pressure Air Temp Water Temp Dewpoint Dewpoint Depression Visibility Wind Speed Wind Dir Waves Ship Positions

Tres Hombres

Ship's website: http://www.zeilendehandelsvaart.nl/

Last reported at 2015-Jul-06 15:28 UTC. Time now 2015-Jul-07 13:18 UTC.
Position N 51°27' E 002°18'.

Length 32 m.

Type: Sailing vessel. MMSI: 667905000.

Date/timePositionNaut miles runAvg speedWind from/ knotsBaromVisibWave heightAir tempDewpointWater temp
2015-Jul-06 15:28N 51°27' E 002°18'5 4.8
2015-Jul-06 14:26N 51°23' E 002°14'4 4.7
2015-Jul-06 13:33N 51°20' E 002°10'4 4.0
2015-Jul-06 12:31N 51°16' E 002°06'3 2.7
2015-Jul-06 11:32N 51°14' E 002°03'2 2.3
2015-Jul-06 10:28N 51°12' E 002°01'3 3.6
2015-Jul-06 09:33N 51°12' E 001°56'4 3.7
2015-Jul-06 08:33N 51°10' E 001°50'5 4.9
2015-Jul-06 07:33N 51°09' E 001°43'6 5.5
2015-Jul-06 06:33N 51°12' E 001°35'5 5.1
2015-Jul-06 05:33N 51°08' E 001°30'5 5.0
2015-Jul-06 04:33N 51°05' E 001°24'36 6.0
2015-Jul-05 22:32N 50°44' E 000°37'7 6.1
2015-Jul-05 21:24N 50°42' E 000°26'6 6.6
2015-Jul-05 20:33N 50°41' E 000°18'6 6.0
2015-Jul-05 19:30N 50°40' E 000°08'56 4.3
2015-Jul-05 06:30N 50°31' W 001°19'7 0.9
2015-Jul-04 22:03N 50°29' W 001°30'68 5.0
2015-Jul-04 08:34N 50°26' W 003°16'6 6.5
2015-Jul-04 07:33N 50°25' W 003°27'3 3.0
2015-Jul-04 06:32N 50°24' W 003°31'0 0.0
2015-Jul-04 05:32N 50°24' W 003°31'0 0.0
2015-Jul-03 16:33N 50°24' W 003°31'0 0.0
2015-Jul-03 15:33N 50°24' W 003°31'0 0.0
2015-Jul-03 14:33N 50°24' W 003°31'0 0.0
2015-Jul-03 13:33N 50°24' W 003°31'0 0.0
2015-Jul-03 12:33N 50°24' W 003°31'0 0.0
2015-Jul-03 11:33N 50°24' W 003°31'0 0.0
2015-Jul-03 10:33N 50°24' W 003°31'0 0.0
2015-Jul-03 09:33N 50°24' W 003°31'0 0.0
2015-Jul-03 08:33N 50°24' W 003°31'0 0.0
2015-Jul-03 07:33N 50°24' W 003°31'0 0.0
2015-Jul-03 06:33N 50°24' W 003°31'0 0.0
2015-Jul-03 05:33N 50°24' W 003°31'0 0.0
2015-Jul-03 04:33N 50°24' W 003°31'0 0.0
2015-Jul-03 03:33N 50°24' W 003°31'0 0.0
2015-Jul-03 02:33N 50°24' W 003°31'0 0.0
2015-Jul-03 01:33N 50°24' W 003°31'0 0.0
2015-Jul-03 00:33N 50°24' W 003°31'0 0.0
2015-Jul-02 23:33N 50°24' W 003°31'0 0.0
2015-Jul-02 22:33N 50°24' W 003°31'0 0.0
2015-Jul-02 21:33N 50°24' W 003°31'0 0.0
2015-Jul-02 20:33N 50°24' W 003°31'0 0.0
2015-Jul-02 19:33N 50°24' W 003°31'0 0.0
2015-Jul-02 18:33N 50°24' W 003°31'0 0.0
2015-Jul-02 17:33N 50°24' W 003°31'0 0.0
2015-Jul-02 16:33N 50°24' W 003°31'0 0.0
2015-Jul-02 15:33N 50°24' W 003°31'0 0.0
2015-Jul-02 14:33N 50°24' W 003°31'1 1.4
2015-Jul-02 13:33N 50°25' W 003°30'4 4.0
2015-Jul-02 12:33N 50°25' W 003°24'2 2.3
2015-Jul-02 11:33N 50°23' W 003°23'5 4.8
2015-Jul-02 10:33N 50°19' W 003°27'2 2.3
2015-Jul-02 09:28N 50°17' W 003°29'2 2.4
2015-Jul-02 08:33N 50°15' W 003°31'35 2.4
2015-Jul-01 18:14N 49°46' W 004°01'99 2.9
2015-Jun-30 08:33N 48°14' W 004°55'6 6.3
2015-Jun-30 07:33N 48°09' W 004°50'5 4.5
2015-Jun-30 06:29N 48°05' W 004°44'11 5.7
2015-Jun-30 04:33N 48°10' W 004°29'  

Dump ship's entire track history